createdAt,value
2022-09-22T00:00:09.037Z,4.41
2022-09-22T00:02:35.661Z,4.40
2022-09-22T00:05:02.276Z,4.48
2022-09-22T00:07:29.643Z,4.50
2022-09-22T00:09:56.539Z,4.48
2022-09-22T00:12:23.356Z,4.42
2022-09-22T00:14:49.980Z,4.37
2022-09-22T00:17:16.568Z,4.26
2022-09-22T00:19:43.169Z,4.30
2022-09-22T00:22:09.965Z,4.18
2022-09-22T00:24:36.576Z,4.33
2022-09-22T00:27:03.255Z,4.23
2022-09-22T00:29:30.585Z,4.30
2022-09-22T00:31:57.766Z,4.21
2022-09-22T00:34:26.254Z,4.15
2022-09-22T00:36:53.346Z,4.23
2022-09-22T00:39:20.314Z,4.05
2022-09-22T00:41:49.453Z,3.85
2022-09-22T00:44:16.003Z,3.96
2022-09-22T00:46:44.989Z,3.96
2022-09-22T00:49:12.625Z,4.01
2022-09-22T00:51:41.915Z,3.88
2022-09-22T00:54:15.765Z,3.82
2022-09-22T00:56:55.651Z,3.75
2022-09-22T00:59:23.295Z,3.63
2022-09-22T01:01:50.105Z,3.66
2022-09-22T01:04:17.243Z,3.73
2022-09-22T01:06:44.469Z,3.71
2022-09-22T01:09:11.341Z,3.67
2022-09-22T01:11:40.018Z,3.75
2022-09-22T01:14:15.974Z,3.87
2022-09-22T01:17:17.860Z,3.79
2022-09-22T01:20:09.281Z,3.77
2022-09-22T01:22:55.817Z,3.66
2022-09-22T01:25:22.375Z,3.70
2022-09-22T01:28:00.979Z,3.71
2022-09-22T01:30:37.203Z,3.61
2022-09-22T01:33:43.548Z,3.62
2022-09-22T01:36:10.238Z,3.68
2022-09-22T01:39:08.465Z,3.56
2022-09-22T01:41:48.890Z,3.48
2022-09-22T01:44:45.172Z,3.52
2022-09-22T01:47:28.483Z,3.50
2022-09-22T01:49:59.976Z,3.37
2022-09-22T01:52:31.427Z,3.34
2022-09-22T01:55:15.080Z,3.45
2022-09-22T01:57:50.444Z,3.45
2022-09-22T02:00:17.401Z,3.37
2022-09-22T02:02:50.669Z,3.41
2022-09-22T02:05:52.079Z,3.38
2022-09-22T02:08:24.901Z,3.37
2022-09-22T02:10:52.931Z,3.32
2022-09-22T02:13:19.600Z,3.25
2022-09-22T02:16:01.280Z,3.15
2022-09-22T02:18:56.664Z,2.74
2022-09-22T02:21:25.362Z,2.86
2022-09-22T02:23:51.977Z,2.86
2022-09-22T02:26:23.919Z,2.92
2022-09-22T02:28:56.220Z,3.07
2022-09-22T02:31:24.707Z,2.99
2022-09-22T02:33:52.119Z,2.86
2022-09-22T02:36:26.037Z,2.80
2022-09-22T02:39:08.043Z,2.75
2022-09-22T02:41:54.855Z,2.82
2022-09-22T02:44:27.071Z,2.86
2022-09-22T02:47:00.570Z,2.86
2022-09-22T02:49:27.912Z,2.97
2022-09-22T02:51:54.901Z,2.90
2022-09-22T02:54:22.569Z,2.93
2022-09-22T02:56:49.340Z,2.91
2022-09-22T02:59:15.979Z,2.84
2022-09-22T03:01:42.699Z,2.69
2022-09-22T03:04:09.324Z,2.70
2022-09-22T03:06:36.824Z,2.70
2022-09-22T03:09:03.636Z,2.61
2022-09-22T03:11:30.253Z,2.61
2022-09-22T03:13:56.951Z,2.67
2022-09-22T03:16:23.649Z,2.72
2022-09-22T03:18:50.299Z,2.76
2022-09-22T03:21:16.898Z,2.78
2022-09-22T03:23:43.610Z,2.78
2022-09-22T03:26:10.217Z,2.83
2022-09-22T03:28:36.848Z,2.83
2022-09-22T03:31:03.522Z,2.84
2022-09-22T03:33:30.171Z,2.77
2022-09-22T03:35:56.813Z,2.71
2022-09-22T03:38:23.628Z,2.69
2022-09-22T03:40:52.679Z,2.77
2022-09-22T03:43:20.110Z,2.80
2022-09-22T03:45:47.039Z,2.65
2022-09-22T03:48:13.767Z,2.42
2022-09-22T03:50:40.388Z,2.45
2022-09-22T03:53:07.008Z,2.36
2022-09-22T03:55:34.255Z,2.37
2022-09-22T03:58:00.877Z,2.36
2022-09-22T04:00:28.481Z,2.42
2022-09-22T04:02:55.152Z,2.41
2022-09-22T04:05:21.780Z,2.48
2022-09-22T04:07:48.516Z,2.45
2022-09-22T04:10:15.140Z,2.39
2022-09-22T04:12:41.774Z,2.40
2022-09-22T04:15:09.116Z,2.43
2022-09-22T04:17:37.125Z,2.47
2022-09-22T04:20:05.422Z,2.48
2022-09-22T04:22:32.283Z,2.46
2022-09-22T04:24:58.946Z,2.40
2022-09-22T04:27:25.600Z,2.36
2022-09-22T04:29:52.259Z,2.22
2022-09-22T04:32:19.387Z,2.24
2022-09-22T04:34:46.032Z,2.33
2022-09-22T04:37:12.699Z,2.24
2022-09-22T04:39:39.568Z,2.29
2022-09-22T04:42:06.587Z,2.24
2022-09-22T04:44:35.100Z,2.23
2022-09-22T04:47:02.134Z,2.15
2022-09-22T04:49:28.726Z,2.17
2022-09-22T04:51:55.373Z,2.14
2022-09-22T04:54:22.041Z,2.04
2022-09-22T04:56:48.678Z,1.93
2022-09-22T04:59:15.341Z,2.17
2022-09-22T05:01:42.041Z,2.15
2022-09-22T05:04:09.416Z,2.14
2022-09-22T05:06:36.480Z,1.93
2022-09-22T05:09:03.793Z,2.11
2022-09-22T05:11:31.404Z,2.08
2022-09-22T05:13:58.727Z,2.06
2022-09-22T05:16:26.139Z,2.04
2022-09-22T05:18:53.046Z,2.02
2022-09-22T05:21:19.653Z,1.98
2022-09-22T05:23:46.761Z,2.03
2022-09-22T05:26:13.639Z,1.98
2022-09-22T05:28:41.012Z,2.08
2022-09-22T05:31:07.996Z,2.12
2022-09-22T05:33:34.662Z,2.02
2022-09-22T05:36:01.401Z,1.98
2022-09-22T05:38:29.005Z,2.03
2022-09-22T05:40:55.618Z,1.79
2022-09-22T05:43:22.236Z,1.74
2022-09-22T05:45:49.926Z,1.87
2022-09-22T05:48:16.647Z,1.88
2022-09-22T05:50:44.020Z,1.92
2022-09-22T05:53:11.553Z,2.03
2022-09-22T05:55:39.458Z,2.12
2022-09-22T05:58:06.132Z,2.17
2022-09-22T06:00:33.184Z,2.15
2022-09-22T06:02:59.933Z,2.14
2022-09-22T06:05:26.833Z,2.16
2022-09-22T06:08:01.561Z,2.18
2022-09-22T06:10:28.490Z,2.25
2022-09-22T06:13:01.770Z,2.28
2022-09-22T06:15:28.832Z,2.24
2022-09-22T06:17:56.348Z,2.33
2022-09-22T06:20:23.611Z,2.22
2022-09-22T06:22:50.250Z,2.36
2022-09-22T06:25:17.029Z,2.39
2022-09-22T06:27:44.161Z,2.37
2022-09-22T06:30:12.016Z,2.49
2022-09-22T06:32:43.933Z,2.48
2022-09-22T06:35:10.566Z,2.43
2022-09-22T06:37:38.721Z,2.41
2022-09-22T06:40:08.346Z,2.56
2022-09-22T06:42:35.791Z,2.62
2022-09-22T06:45:04.759Z,2.46
2022-09-22T06:47:33.032Z,2.71
2022-09-22T06:50:02.416Z,2.75
2022-09-22T06:52:29.046Z,2.84
2022-09-22T06:54:58.655Z,2.88
2022-09-22T06:57:27.980Z,2.88
2022-09-22T06:59:54.670Z,2.88
2022-09-22T07:02:23.314Z,2.94
2022-09-22T07:04:50.684Z,3.08
2022-09-22T07:07:17.532Z,3.15
2022-09-22T07:09:44.181Z,3.19
2022-09-22T07:12:10.785Z,3.42
2022-09-22T07:14:37.449Z,3.49
2022-09-22T07:17:04.077Z,3.70
2022-09-22T07:19:33.276Z,3.85
2022-09-22T07:21:59.900Z,4.01
2022-09-22T07:24:27.987Z,4.23
2022-09-22T07:26:54.612Z,4.55
2022-09-22T07:29:21.405Z,4.74
2022-09-22T07:31:48.117Z,4.88
2022-09-22T07:34:15.232Z,5.23
2022-09-22T07:36:41.908Z,5.46
2022-09-22T07:39:11.405Z,5.73
2022-09-22T07:41:44.432Z,6.06
2022-09-22T07:44:31.501Z,6.22
2022-09-22T07:46:58.282Z,6.54
2022-09-22T07:49:24.943Z,6.82
2022-09-22T07:51:55.218Z,7.07
2022-09-22T07:54:22.622Z,7.34
2022-09-22T07:56:56.123Z,7.57
2022-09-22T07:59:22.744Z,7.84
2022-09-22T08:01:51.604Z,8.18
2022-09-22T08:04:23.096Z,8.69
2022-09-22T08:06:52.417Z,8.93
2022-09-22T08:09:19.215Z,9.16
2022-09-22T08:11:48.676Z,9.54
2022-09-22T08:14:18.707Z,9.74
2022-09-22T08:16:46.105Z,9.98
2022-09-22T08:19:14.057Z,10.29
2022-09-22T08:21:48.967Z,10.66
2022-09-22T08:24:23.311Z,10.92
2022-09-22T08:26:52.313Z,11.07
2022-09-22T08:29:19.375Z,11.30
2022-09-22T08:31:47.608Z,11.53
2022-09-22T08:34:16.504Z,11.77
2022-09-22T08:36:47.484Z,11.68
2022-09-22T08:39:15.113Z,11.56
2022-09-22T08:42:08.568Z,11.93
2022-09-22T08:45:03.191Z,11.98
2022-09-22T08:48:01.538Z,12.20
2022-09-22T08:51:17.395Z,12.47
2022-09-22T08:53:49.788Z,12.43
2022-09-22T08:56:29.361Z,12.43
2022-09-22T08:59:09.241Z,12.52
2022-09-22T09:01:42.674Z,12.47
2022-09-22T09:04:48.532Z,12.69
2022-09-22T09:07:17.945Z,12.81
2022-09-22T09:09:50.530Z,12.78
2022-09-22T09:12:19.779Z,12.82
2022-09-22T09:15:05.207Z,13.03
2022-09-22T09:17:36.788Z,12.65
2022-09-22T09:20:17.616Z,13.04
2022-09-22T09:22:49.214Z,13.36
2022-09-22T09:25:24.114Z,13.91
2022-09-22T09:27:55.298Z,13.87
2022-09-22T09:30:22.163Z,13.65
2022-09-22T09:33:02.450Z,14.15
2022-09-22T09:35:47.953Z,14.07
2022-09-22T09:38:17.334Z,14.12
2022-09-22T09:40:52.946Z,14.15
2022-09-22T09:43:22.194Z,14.29
2022-09-22T09:46:07.472Z,14.31
2022-09-22T09:48:42.155Z,14.27
2022-09-22T09:51:12.968Z,14.51
2022-09-22T09:53:47.719Z,14.47
2022-09-22T09:56:22.015Z,14.21
2022-09-22T09:59:18.462Z,13.96
2022-09-22T10:01:47.141Z,14.27
2022-09-22T10:04:29.031Z,14.77
2022-09-22T10:07:15.648Z,14.93
2022-09-22T10:09:42.899Z,14.96
2022-09-22T10:12:24.563Z,15.24
2022-09-22T10:14:55.912Z,15.41
2022-09-22T10:17:28.776Z,15.25
2022-09-22T10:20:16.214Z,15.12
2022-09-22T10:22:43.256Z,15.25
2022-09-22T10:25:22.709Z,15.40
2022-09-22T10:27:59.932Z,15.49
2022-09-22T10:30:27.605Z,15.49
2022-09-22T10:33:20.607Z,15.69
2022-09-22T10:36:09.257Z,15.74
2022-09-22T10:38:41.445Z,15.99
2022-09-22T10:41:12.460Z,15.88
2022-09-22T10:44:34.549Z,15.97
2022-09-22T10:47:33.270Z,15.74
2022-09-22T10:50:31.391Z,15.81
2022-09-22T10:53:26.815Z,16.02
2022-09-22T10:56:05.804Z,16.01
2022-09-22T10:58:38.625Z,16.29
2022-09-22T11:01:39.518Z,16.48
2022-09-22T11:04:12.282Z,16.60
2022-09-22T11:07:07.319Z,17.02
2022-09-22T11:10:18.680Z,17.04
2022-09-22T11:13:07.539Z,17.21
2022-09-22T11:15:40.049Z,17.15
2022-09-22T11:18:07.115Z,17.22
2022-09-22T11:20:48.911Z,17.14
2022-09-22T11:23:30.057Z,17.13
2022-09-22T11:26:15.328Z,16.65
2022-09-22T11:29:00.821Z,16.80
2022-09-22T11:31:49.856Z,17.20
2022-09-22T11:34:43.192Z,17.17
2022-09-22T11:37:27.385Z,17.51
2022-09-22T11:40:27.290Z,17.83
2022-09-22T11:43:31.624Z,18.13
2022-09-22T11:46:07.024Z,17.91
2022-09-22T11:48:55.519Z,18.00
2022-09-22T11:51:31.309Z,17.82
2022-09-22T11:54:03.785Z,18.51
2022-09-22T11:56:40.237Z,18.65
2022-09-22T11:59:33.357Z,19.23
2022-09-22T12:02:04.731Z,18.81
2022-09-22T12:04:34.336Z,18.77
2022-09-22T12:07:03.334Z,19.12
2022-09-22T12:09:47.012Z,19.19
2022-09-22T12:12:18.025Z,19.06
2022-09-22T12:14:46.460Z,19.19
2022-09-22T12:17:22.906Z,19.24
2022-09-22T12:19:53.476Z,19.26
2022-09-22T12:22:31.351Z,18.88
2022-09-22T12:24:58.552Z,18.97
2022-09-22T12:27:27.556Z,19.11
2022-09-22T12:29:55.534Z,19.63
2022-09-22T12:32:35.743Z,19.70
2022-09-22T12:35:02.761Z,19.98
2022-09-22T12:37:32.188Z,20.15
2022-09-22T12:40:26.414Z,20.27
2022-09-22T12:42:53.787Z,20.22
2022-09-22T12:45:32.023Z,20.54
2022-09-22T12:48:00.956Z,20.66
2022-09-22T12:50:38.808Z,21.06
2022-09-22T12:53:11.161Z,20.74
2022-09-22T12:55:38.629Z,20.91
2022-09-22T12:58:28.413Z,20.86
2022-09-22T13:00:56.570Z,21.36
2022-09-22T13:03:26.058Z,20.91
2022-09-22T13:06:25.633Z,20.96
2022-09-22T13:08:54.906Z,20.79
2022-09-22T13:11:59.898Z,21.23
2022-09-22T13:15:05.406Z,21.71
2022-09-22T13:17:46.871Z,21.80
2022-09-22T13:20:16.156Z,21.27
2022-09-22T13:22:43.207Z,21.12
2022-09-22T13:25:36.053Z,21.06
2022-09-22T13:28:23.453Z,20.72
2022-09-22T13:31:06.114Z,20.88
2022-09-22T13:33:35.258Z,20.97
2022-09-22T13:36:05.922Z,20.41
2022-09-22T13:38:59.127Z,20.90
2022-09-22T13:41:27.673Z,21.08
2022-09-22T13:44:00.140Z,21.22
2022-09-22T13:46:50.317Z,21.07
2022-09-22T13:49:38.019Z,20.72
2022-09-22T13:52:13.024Z,21.17
2022-09-22T13:54:40.594Z,21.29
2022-09-22T13:57:18.236Z,21.48
2022-09-22T13:59:45.207Z,21.13
2022-09-22T14:02:13.665Z,21.08
2022-09-22T14:04:52.600Z,21.30
2022-09-22T14:07:23.736Z,21.60
2022-09-22T14:09:50.880Z,22.01
2022-09-22T14:12:17.819Z,21.65
2022-09-22T14:14:44.672Z,21.70
2022-09-22T14:17:22.357Z,21.69
2022-09-22T14:19:57.649Z,21.43
2022-09-22T14:22:25.947Z,21.46
2022-09-22T14:24:55.946Z,21.10
2022-09-22T14:27:28.762Z,21.30
2022-09-22T14:29:56.524Z,21.52
2022-09-22T14:32:25.886Z,21.79
2022-09-22T14:34:59.390Z,22.07
2022-09-22T14:37:30.166Z,21.85
2022-09-22T14:39:57.964Z,22.13
2022-09-22T14:42:29.514Z,22.36
2022-09-22T14:45:08.541Z,22.44
2022-09-22T14:47:40.629Z,22.93
2022-09-22T14:50:13.179Z,22.92
2022-09-22T14:52:45.889Z,22.70
2022-09-22T14:55:29.217Z,22.57
2022-09-22T14:57:56.442Z,22.81
2022-09-22T15:00:41.840Z,23.09
2022-09-22T15:03:21.908Z,23.16
2022-09-22T15:05:50.314Z,23.15
2022-09-22T15:08:27.820Z,23.25
2022-09-22T15:10:56.794Z,23.53
2022-09-22T15:13:37.280Z,23.59
2022-09-22T15:16:04.750Z,23.32
2022-09-22T15:18:31.577Z,23.86
2022-09-22T15:21:06.657Z,23.78
2022-09-22T15:23:42.018Z,23.70
2022-09-22T15:26:24.899Z,23.16
2022-09-22T15:28:53.787Z,22.00
2022-09-22T15:31:27.046Z,21.33
2022-09-22T15:34:01.366Z,20.92
2022-09-22T15:36:30.648Z,20.49
2022-09-22T15:38:59.825Z,19.66
2022-09-22T15:41:27.101Z,19.72
2022-09-22T15:43:53.913Z,19.48
2022-09-22T15:46:31.648Z,19.35
2022-09-22T15:49:08.794Z,19.12
2022-09-22T15:51:35.569Z,18.98
2022-09-22T15:54:02.211Z,18.86
2022-09-22T15:56:29.704Z,18.64
2022-09-22T15:58:59.085Z,18.45
2022-09-22T16:01:29.585Z,18.30
2022-09-22T16:04:00.202Z,18.14
2022-09-22T16:06:27.499Z,17.91
2022-09-22T16:08:55.474Z,17.74
2022-09-22T16:11:30.495Z,17.69
2022-09-22T16:14:03.612Z,17.54
2022-09-22T16:16:32.384Z,17.55
2022-09-22T16:19:00.072Z,17.25
2022-09-22T16:21:33.216Z,17.27
2022-09-22T16:24:04.836Z,17.14
2022-09-22T16:26:31.965Z,17.11
2022-09-22T16:28:59.205Z,16.99
2022-09-22T16:31:27.661Z,16.87
2022-09-22T16:33:55.895Z,16.98
2022-09-22T16:36:23.287Z,16.89
2022-09-22T16:38:50.205Z,16.77
2022-09-22T16:41:27.607Z,16.58
2022-09-22T16:43:55.227Z,16.59
2022-09-22T16:46:33.744Z,16.57
2022-09-22T16:49:12.833Z,16.42
2022-09-22T16:51:41.877Z,16.24
2022-09-22T16:54:14.282Z,16.21
2022-09-22T16:56:46.165Z,16.16
2022-09-22T16:59:15.601Z,16.10
2022-09-22T17:01:43.916Z,16.00
2022-09-22T17:04:12.514Z,15.83
2022-09-22T17:06:40.768Z,15.60
2022-09-22T17:09:08.462Z,15.54
2022-09-22T17:11:37.563Z,15.34
2022-09-22T17:14:10.019Z,15.18
2022-09-22T17:16:40.275Z,14.95
2022-09-22T17:19:16.189Z,14.83
2022-09-22T17:21:43.240Z,14.67
2022-09-22T17:24:09.958Z,14.38
2022-09-22T17:26:45.474Z,14.34
2022-09-22T17:29:12.241Z,14.20
2022-09-22T17:31:41.037Z,14.09
2022-09-22T17:34:07.967Z,14.00
2022-09-22T17:36:34.721Z,13.82
2022-09-22T17:39:01.921Z,13.69
2022-09-22T17:41:31.570Z,13.50
2022-09-22T17:44:01.308Z,13.36
2022-09-22T17:46:33.724Z,13.18
2022-09-22T17:49:19.584Z,12.98
2022-09-22T17:52:08.702Z,12.91
2022-09-22T17:54:58.162Z,12.74
2022-09-22T17:57:29.513Z,12.58
2022-09-22T17:59:56.897Z,12.54
2022-09-22T18:02:28.358Z,12.49
2022-09-22T18:04:55.319Z,12.29
2022-09-22T18:07:24.468Z,12.21
2022-09-22T18:09:52.149Z,11.99
2022-09-22T18:12:21.800Z,11.91
2022-09-22T18:14:50.243Z,11.86
2022-09-22T18:17:19.691Z,11.83
2022-09-22T18:19:47.302Z,11.69
2022-09-22T18:22:17.041Z,11.56
2022-09-22T18:24:44.357Z,11.46
2022-09-22T18:27:13.772Z,11.43
2022-09-22T18:29:40.540Z,11.37
2022-09-22T18:32:07.149Z,11.29
2022-09-22T18:34:33.894Z,11.16
2022-09-22T18:37:01.605Z,11.15
2022-09-22T18:39:28.751Z,11.05
2022-09-22T18:41:55.462Z,10.90
2022-09-22T18:44:22.645Z,10.75
2022-09-22T18:46:49.454Z,10.61
2022-09-22T18:49:16.665Z,10.60
2022-09-22T18:51:49.212Z,10.54
2022-09-22T18:54:21.812Z,10.47
2022-09-22T18:56:49.595Z,10.34
2022-09-22T18:59:18.858Z,10.32
2022-09-22T19:01:46.356Z,10.14
2022-09-22T19:04:17.139Z,10.13
2022-09-22T19:07:06.702Z,10.06
2022-09-22T19:09:34.428Z,9.91
2022-09-22T19:12:01.241Z,9.91
2022-09-22T19:14:27.848Z,9.87
2022-09-22T19:16:54.501Z,9.81
2022-09-22T19:19:22.485Z,9.67
2022-09-22T19:21:50.371Z,9.54
2022-09-22T19:24:17.648Z,9.45
2022-09-22T19:26:44.578Z,9.42
2022-09-22T19:29:12.205Z,9.40
2022-09-22T19:31:41.557Z,9.21
2022-09-22T19:34:09.151Z,9.05
2022-09-22T19:36:35.924Z,9.10
2022-09-22T19:39:03.260Z,9.07
2022-09-22T19:41:29.941Z,9.06
2022-09-22T19:43:57.120Z,9.08
2022-09-22T19:46:24.405Z,9.06
2022-09-22T19:48:51.378Z,8.98
2022-09-22T19:51:18.003Z,8.90
2022-09-22T19:53:44.633Z,8.87
2022-09-22T19:56:11.293Z,8.87
2022-09-22T19:58:38.593Z,8.66
2022-09-22T20:01:07.967Z,8.59
2022-09-22T20:03:34.600Z,8.60
2022-09-22T20:06:01.196Z,8.51
2022-09-22T20:08:27.883Z,8.42
2022-09-22T20:11:16.382Z,8.52
2022-09-22T20:14:02.468Z,8.50
2022-09-22T20:16:30.989Z,8.40
2022-09-22T20:18:57.861Z,8.32
2022-09-22T20:21:26.089Z,8.35
2022-09-22T20:23:52.727Z,8.30
2022-09-22T20:26:21.644Z,8.22
2022-09-22T20:28:48.353Z,8.15
2022-09-22T20:31:16.754Z,7.95
2022-09-22T20:33:43.454Z,7.87
2022-09-22T20:36:11.444Z,7.93
2022-09-22T20:38:38.416Z,7.89
2022-09-22T20:41:05.155Z,7.93
2022-09-22T20:43:31.835Z,7.80
2022-09-22T20:46:04.746Z,7.83
2022-09-22T20:48:31.428Z,7.74
2022-09-22T20:50:58.754Z,7.81
2022-09-22T20:53:26.505Z,7.58
2022-09-22T20:56:01.338Z,7.66
2022-09-22T20:58:29.167Z,7.59
2022-09-22T21:00:55.908Z,7.56
2022-09-22T21:03:22.628Z,7.55
2022-09-22T21:05:49.274Z,7.54
2022-09-22T21:08:34.687Z,7.59
2022-09-22T21:11:01.446Z,7.48
2022-09-22T21:13:28.113Z,7.36
2022-09-22T21:16:03.632Z,7.42
2022-09-22T21:18:34.113Z,7.47
2022-09-22T21:21:01.854Z,7.37
2022-09-22T21:23:28.989Z,7.39
2022-09-22T21:26:00.544Z,7.32
2022-09-22T21:28:27.965Z,7.33
2022-09-22T21:31:01.070Z,7.30
2022-09-22T21:33:28.295Z,7.27
2022-09-22T21:36:04.863Z,7.28
2022-09-22T21:38:31.834Z,7.26
2022-09-22T21:41:00.144Z,7.10
2022-09-22T21:43:27.982Z,7.13
2022-09-22T21:46:05.248Z,7.03
2022-09-22T21:48:33.392Z,6.92
2022-09-22T21:51:12.006Z,6.91
2022-09-22T21:53:39.554Z,6.87
2022-09-22T21:56:08.756Z,6.88
2022-09-22T21:58:37.121Z,6.66
2022-09-22T22:01:12.491Z,6.72
2022-09-22T22:03:42.331Z,6.73
2022-09-22T22:06:18.525Z,6.78
2022-09-22T22:08:45.404Z,6.78
2022-09-22T22:11:21.214Z,6.70
2022-09-22T22:13:52.176Z,6.68
2022-09-22T22:16:21.104Z,6.62
2022-09-22T22:18:48.311Z,6.62
2022-09-22T22:21:35.362Z,6.52
2022-09-22T22:24:24.172Z,6.56
2022-09-22T22:26:59.113Z,6.52
2022-09-22T22:29:26.924Z,6.42
2022-09-22T22:31:54.072Z,6.44
2022-09-22T22:34:22.641Z,6.43
2022-09-22T22:36:49.461Z,6.38
2022-09-22T22:39:16.473Z,6.31
2022-09-22T22:41:43.153Z,6.22
2022-09-22T22:44:09.904Z,6.24
2022-09-22T22:46:36.596Z,6.21
2022-09-22T22:49:03.412Z,6.19
2022-09-22T22:51:30.103Z,6.12
2022-09-22T22:53:56.762Z,6.04
2022-09-22T22:56:27.660Z,6.05
2022-09-22T22:58:54.298Z,5.98
2022-09-22T23:01:25.783Z,5.98
2022-09-22T23:03:56.398Z,5.91
2022-09-22T23:06:26.643Z,5.90
2022-09-22T23:08:53.981Z,5.89
2022-09-22T23:11:23.261Z,5.78
2022-09-22T23:14:03.852Z,5.80
2022-09-22T23:16:33.033Z,5.78
2022-09-22T23:19:01.894Z,5.72
2022-09-22T23:21:30.407Z,5.63
2022-09-22T23:23:57.168Z,5.61
2022-09-22T23:26:27.971Z,5.59
2022-09-22T23:28:54.857Z,5.53
2022-09-22T23:31:22.226Z,5.49
2022-09-22T23:33:50.112Z,5.50
2022-09-22T23:36:19.995Z,5.53
2022-09-22T23:38:46.649Z,5.45
2022-09-22T23:41:13.534Z,5.35
2022-09-22T23:43:40.509Z,5.38
2022-09-22T23:46:07.825Z,5.33
2022-09-22T23:48:35.677Z,5.32
2022-09-22T23:51:02.836Z,5.23
2022-09-22T23:53:32.676Z,5.22
2022-09-22T23:55:59.766Z,5.22
2022-09-22T23:58:26.441Z,5.20
